Time;durP1;ratioP1;P1;durP2;ratioP2;P2;SDS_P1;SDS_P2;PMS_P1;PMS_P2;Temp;Humidity;BMP_temperature;BMP_pressure;BME280_temperature;BME280_humidity;BME280_pressure;Samples;Min_cycle;Max_cycle;Signal;HPM_P1;HPM_P2
2021/01/09 00:00:42;;;;;;;17.83;10.85;;;0.90;99.90;;;;;;12913612;22;20020;-90
2021/01/09 00:05:44;;;;;;;14.35;9.23;;;0.90;99.90;;;;;;12912697;22;20023;-90
2021/01/09 00:10:50;;;;;;;10.25;6.82;;;1.00;99.90;;;;;;12937470;22;20020;-90
2021/01/09 00:15:51;;;;;;;14.15;8.98;;;0.80;99.90;;;;;;12888167;22;20107;-90
2021/01/09 00:20:53;;;;;;;9.10;6.85;;;0.80;99.90;;;;;;12934527;22;20038;-90
2021/01/09 00:25:55;;;;;;;12.15;6.80;;;0.70;99.90;;;;;;12934086;22;20102;-90
2021/01/09 00:30:57;;;;;;;17.88;9.32;;;0.70;99.90;;;;;;12911659;22;20338;-90
2021/01/09 00:36:01;;;;;;;10.30;7.38;;;0.60;99.90;;;;;;12912036;22;20545;-90
2021/01/09 00:41:03;;;;;;;17.50;9.95;;;0.60;99.90;;;;;;12936707;22;20024;-90
2021/01/09 00:46:05;;;;;;;10.23;6.80;;;0.60;99.90;;;;;;12911301;22;20024;-90
2021/01/09 00:51:12;;;;;;;9.57;6.72;;;0.60;99.90;;;;;;12961227;22;20015;-90
2021/01/09 00:56:17;;;;;;;10.98;6.88;;;0.50;99.90;;;;;;12938935;22;20055;-91
2021/01/09 01:01:19;;;;;;;10.75;7.13;;;0.40;99.90;;;;;;12915390;22;20023;-90
2021/01/09 01:06:24;;;;;;;;;;;0.40;99.90;;;;;;12914047;22;20046;-90
2021/01/09 01:11:30;;;;;;;10.38;6.60;;;0.30;99.90;;;;;;12964319;22;20336;-90
2021/01/09 01:16:31;;;;;;;8.02;6.05;;;0.20;99.90;;;;;;12940314;22;20027;-89
2021/01/09 01:21:34;;;;;;;;;;;0.10;99.90;;;;;;12915698;22;20027;-89
2021/01/09 01:26:36;;;;;;;10.20;7.60;;;0.10;99.90;;;;;;12915726;22;19915;-89
2021/01/09 01:31:38;;;;;;;9.40;6.75;;;0.10;99.90;;;;;;12914345;22;20031;-90
2021/01/09 01:36:39;;;;;;;10.52;6.80;;;-0.10;99.90;;;;;;12889737;22;20020;-89
2021/01/09 01:41:42;;;;;;;10.02;6.38;;;-0.10;99.90;;;;;;12889964;22;20340;-89
2021/01/09 01:46:44;;;;;;;10.20;7.03;;;-0.20;99.90;;;;;;12913559;22;20035;-89
2021/01/09 01:51:48;;;;;;;9.57;6.72;;;-0.20;99.90;;;;;;12913914;22;20030;-89
2021/01/09 01:56:53;;;;;;;10.00;7.40;;;-0.20;99.90;;;;;;12913371;22;20051;-90
2021/01/09 02:01:55;;;;;;;11.85;8.00;;;-0.30;99.90;;;;;;12939135;22;20050;-90
2021/01/09 02:07:00;;;;;;;13.75;7.18;;;-0.40;99.90;;;;;;12888896;22;20066;-90
2021/01/09 02:12:05;;;;;;;11.63;7.40;;;-0.30;99.90;;;;;;12963986;22;20020;-90
2021/01/09 02:17:08;;;;;;;13.32;7.97;;;-0.40;99.90;;;;;;12963878;22;20020;-90
2021/01/09 02:22:15;;;;;;;9.35;6.80;;;-0.30;99.90;;;;;;12938104;22;20030;-90
2021/01/09 02:27:16;;;;;;;10.90;7.10;;;-0.40;99.90;;;;;;12937637;22;20023;-89
2021/01/09 02:32:19;;;;;;;;;;;-0.40;99.90;;;;;;12964263;22;20024;-90
2021/01/09 02:37:25;;;;;;;8.63;6.47;;;-0.50;99.90;;;;;;12936869;22;19969;-90
2021/01/09 02:42:26;;;;;;;10.70;6.22;;;-0.50;99.90;;;;;;12911680;22;20093;-90
2021/01/09 02:47:28;;;;;;;11.45;7.63;;;-0.60;99.90;;;;;;12911528;22;20024;-89
2021/01/09 02:52:29;;;;;;;;;;;-0.50;99.90;;;;;;12913722;22;20345;-88
2021/01/09 02:57:34;;;;;;;16.95;9.98;;;-0.50;99.90;;;;;;12910761;22;19919;-89
2021/01/09 03:02:36;;;;;;;15.98;8.98;;;-0.60;99.90;;;;;;12912196;22;20111;-89
2021/01/09 03:07:38;;;;;;;8.45;6.38;;;-0.70;99.90;;;;;;12934179;22;20020;-88
2021/01/09 03:12:40;;;;;;;9.95;7.05;;;-0.70;99.90;;;;;;12909959;22;20356;-88
2021/01/09 03:17:42;;;;;;;16.45;9.32;;;-0.60;99.90;;;;;;12909785;22;20431;-89
2021/01/09 03:22:43;;;;;;;10.77;7.22;;;-0.50;99.90;;;;;;12935125;22;20100;-88
2021/01/09 03:27:44;;;;;;;13.38;8.43;;;-0.50;99.90;;;;;;12909212;22;20495;-88
2021/01/09 03:32:46;;;;;;;9.38;7.18;;;-0.50;99.90;;;;;;12884969;22;20486;-88
2021/01/09 03:37:48;;;;;;;9.30;7.32;;;-0.40;99.90;;;;;;12934994;22;20136;-87
2021/01/09 03:42:49;;;;;;;19.15;10.43;;;-0.20;99.90;;;;;;12936212;22;20023;-88
2021/01/09 03:47:51;;;;;;;;;;;-0.20;99.90;;;;;;12936705;22;20495;-89
2021/01/09 03:52:52;;;;;;;18.90;10.70;;;-0.40;99.90;;;;;;12912335;22;19939;-88
2021/01/09 03:57:54;;;;;;;13.52;9.23;;;-0.10;99.90;;;;;;12886744;22;20407;-89
2021/01/09 04:02:55;;;;;;;11.07;6.35;;;-0.20;99.90;;;;;;12936963;22;20073;-88
2021/01/09 04:07:57;;;;;;;10.57;6.47;;;-0.30;99.90;;;;;;12912503;22;20099;-89
2021/01/09 04:12:58;;;;;;;11.23;8.00;;;-0.40;99.90;;;;;;12912136;22;20020;-89
2021/01/09 04:18:00;;;;;;;12.02;7.82;;;-0.50;99.90;;;;;;12936757;22;20020;-88
2021/01/09 04:23:05;;;;;;;18.10;10.55;;;-0.60;99.90;;;;;;12913681;22;20031;-89
2021/01/09 04:28:06;;;;;;;14.55;8.25;;;-0.60;99.90;;;;;;12910270;22;20070;-88
2021/01/09 04:33:08;;;;;;;11.32;6.88;;;-0.60;99.90;;;;;;12915368;22;20050;-88
2021/01/09 04:38:09;;;;;;;6.85;6.07;;;-0.70;99.90;;;;;;12914616;22;20058;-89
2021/01/09 04:43:14;;;;;;;;;;;-0.90;99.90;;;;;;12888273;22;20469;-89
2021/01/09 04:48:16;;;;;;;12.52;8.05;;;-0.90;99.90;;;;;;12939609;22;19915;-89
2021/01/09 04:53:19;;;;;;;12.98;6.05;;;-1.00;99.90;;;;;;12915902;22;20051;-89
2021/01/09 04:58:20;;;;;;;11.45;6.57;;;-1.00;99.90;;;;;;12914749;22;20349;-89
2021/01/09 05:03:22;;;;;;;12.77;8.07;;;-1.00;99.90;;;;;;12890489;22;20039;-89
2021/01/09 05:08:23;;;;;;;11.48;7.47;;;-1.10;99.90;;;;;;12915783;22;20020;-90
2021/01/09 05:13:25;;;;;;;8.60;6.13;;;-1.10;99.90;;;;;;12915450;22;20046;-89
2021/01/09 05:18:32;;;;;;;11.90;6.93;;;-1.10;99.90;;;;;;12914758;22;20043;-89
2021/01/09 05:23:49;;;;;;;7.95;6.60;;;-1.00;99.90;;;;;;12914029;22;20413;-90
2021/01/09 05:28:57;;;;;;;8.80;6.13;;;-1.10;99.90;;;;;;12918540;22;20024;-90
2021/01/09 05:33:59;;;;;;;13.18;8.25;;;-1.20;99.90;;;;;;12937531;22;20051;-89
2021/01/09 05:39:03;;;;;;;16.20;10.07;;;-1.20;99.90;;;;;;12913869;22;20054;-90
2021/01/09 05:44:08;;;;;;;10.02;6.90;;;-1.20;99.90;;;;;;12939008;22;20453;-89
2021/01/09 06:46:41;;;;;;;12.77;9.52;;;-1.40;99.90;;;;;;13015455;22;20027;-95
2021/01/09 06:51:51;;;;;;;10.32;7.75;;;-1.30;99.90;;;;;;12939218;22;20024;-94
2021/01/09 06:57:35;;;;;;;14.82;10.20;;;-1.30;99.90;;;;;;12990363;22;20019;-95
2021/01/09 07:02:37;;;;;;;13.73;9.27;;;-1.20;99.90;;;;;;12906353;22;20094;-94
2021/01/09 07:07:53;;;;;;;17.23;10.20;;;-1.20;99.90;;;;;;12903474;22;20042;-94
2021/01/09 07:13:03;;;;;;;11.30;7.38;;;-1.00;99.90;;;;;;12915015;22;20449;-94
2021/01/09 07:18:08;;;;;;;13.57;7.68;;;-1.00;99.90;;;;;;12939057;22;20035;-94
2021/01/09 07:23:16;;;;;;;10.10;6.95;;;-1.10;99.90;;;;;;12939207;22;20461;-95
2021/01/09 07:28:22;;;;;;;13.48;8.35;;;-1.10;99.90;;;;;;12939638;22;20020;-95
2021/01/09 07:33:29;;;;;;;9.48;5.95;;;-1.10;99.90;;;;;;12940076;22;20015;-95
2021/01/09 07:38:45;;;;;;;8.32;6.05;;;-1.20;99.90;;;;;;12940463;22;20026;-95
2021/01/09 07:44:19;;;;;;;14.65;7.85;;;-1.10;99.90;;;;;;12935738;22;20055;-95
2021/01/09 07:49:32;;;;;;;15.88;8.75;;;-1.00;99.90;;;;;;12938121;22;20023;-94
2021/01/09 07:54:46;;;;;;;10.27;6.35;;;-0.90;99.90;;;;;;12939139;22;20026;-95
2021/01/09 07:59:53;;;;;;;7.43;5.78;;;-0.90;99.90;;;;;;12941330;22;20035;-94
2021/01/09 08:05:24;;;;;;;13.70;7.80;;;-0.70;99.90;;;;;;12991631;22;20401;-95
2021/01/09 08:10:28;;;;;;;10.93;7.15;;;-0.50;99.90;;;;;;12942356;22;20022;-95
2021/01/09 08:15:31;;;;;;;9.93;5.95;;;-0.60;99.90;;;;;;12942988;22;20082;-95
2021/01/09 08:20:34;;;;;;;11.00;6.97;;;-0.60;99.90;;;;;;12942420;22;20019;-95
2021/01/09 08:25:42;;;;;;;14.70;7.85;;;-0.50;99.90;;;;;;12907428;22;20023;-95
2021/01/09 08:30:43;;;;;;;13.07;7.38;;;-0.50;99.90;;;;;;12943464;22;20039;-95
2021/01/09 08:35:52;;;;;;;6.57;4.72;;;-0.50;99.90;;;;;;12909128;22;20019;-94
2021/01/09 08:40:57;;;;;;;7.03;5.18;;;-0.40;99.90;;;;;;12908879;22;20081;-94
2021/01/09 08:45:59;;;;;;;9.10;4.90;;;-0.20;99.90;;;;;;12941879;22;20025;-95
2021/01/09 08:51:21;;;;;;;7.38;4.15;;;0.00;99.90;;;;;;12910467;22;20135;-95
2021/01/09 08:56:27;;;;;;;8.02;4.95;;;0.10;99.90;;;;;;12917122;22;20023;-95
2021/01/09 09:01:45;;;;;;;7.53;4.40;;;0.20;99.90;;;;;;12942765;22;20024;-95
2021/01/09 09:06:54;;;;;;;8.40;4.15;;;0.40;99.90;;;;;;12942847;22;20043;-95
2021/01/09 09:11:56;;;;;;;10.25;4.80;;;0.40;99.90;;;;;;12942869;22;20340;-95
2021/01/09 09:17:04;;;;;;;10.00;5.60;;;0.40;99.90;;;;;;12940865;22;20403;-95
2021/01/09 09:22:06;;;;;;;13.57;7.50;;;0.30;99.90;;;;;;12942742;22;20023;-95
2021/01/09 09:27:29;;;;;;;10.95;6.65;;;0.50;99.90;;;;;;12942297;22;20020;-95
2021/01/09 09:32:31;;;;;;;11.57;7.50;;;0.70;99.90;;;;;;12942610;22;20019;-95
2021/01/09 09:37:36;;;;;;;12.32;7.50;;;0.80;99.90;;;;;;12917678;22;20020;-95
2021/01/09 09:42:37;;;;;;;11.50;7.85;;;1.00;99.90;;;;;;12919158;22;20050;-94
2021/01/09 09:47:47;;;;;;;17.15;8.15;;;1.20;99.90;;;;;;12881852;22;20016;-93
2021/01/09 09:53:05;;;;;;;16.13;7.22;;;1.20;99.90;;;;;;12943530;22;20027;-93
2021/01/09 09:58:11;;;;;;;20.30;7.90;;;1.30;99.90;;;;;;12941930;22;20020;-94
2021/01/09 10:03:12;;;;;;;11.35;6.80;;;1.50;99.90;;;;;;12919474;22;20031;-93
2021/01/09 10:08:15;;;;;;;;;;;1.50;99.90;;;;;;12916862;22;20015;-92
2021/01/09 10:13:27;;;;;;;9.82;6.55;;;1.60;99.90;;;;;;12941074;22;20013;-93
2021/01/09 10:18:31;;;;;;;11.95;5.72;;;1.70;99.90;;;;;;12940028;22;20093;-93
2021/01/09 10:23:33;;;;;;;11.27;5.47;;;1.80;99.90;;;;;;12943154;22;20046;-93
2021/01/09 10:28:35;;;;;;;12.35;4.80;;;1.80;99.90;;;;;;12944444;22;20019;-93
2021/01/09 10:33:37;;;;;;;;;;;1.90;99.90;;;;;;12912964;22;20091;-93
2021/01/09 10:38:39;;;;;;;17.85;7.15;;;2.00;99.90;;;;;;12940079;22;20327;-96
2021/01/09 10:43:42;;;;;;;10.20;6.65;;;2.00;99.90;;;;;;12965953;22;20019;-96
2021/01/09 10:48:44;;;;;;;16.27;7.63;;;1.90;99.90;;;;;;12941344;22;20016;-96
2021/01/09 10:53:51;;;;;;;;;;;2.00;99.90;;;;;;12952902;22;20020;-96
2021/01/09 10:58:57;;;;;;;10.38;5.47;;;2.40;99.90;;;;;;12989381;22;19990;-96
2021/01/09 11:03:59;;;;;;;11.57;5.90;;;2.50;99.90;;;;;;12948245;22;20023;-95
2021/01/09 11:09:01;;;;;;;10.75;4.22;;;2.60;99.90;;;;;;12916034;22;20043;-95
2021/01/09 11:14:02;;;;;;;11.82;4.72;;;2.60;99.90;;;;;;12939160;22;20353;-96
2021/01/09 11:19:04;;;;;;;;;;;2.90;99.90;;;;;;12915426;22;20039;-94
2021/01/09 11:24:06;;;;;;;9.40;5.10;;;3.00;99.90;;;;;;12964971;22;19939;-95
2021/01/09 11:29:07;;;;;;;8.80;5.32;;;3.10;99.90;;;;;;12910319;22;20043;-94
2021/01/09 11:34:09;;;;;;;8.93;5.75;;;3.20;99.90;;;;;;12909156;22;20016;-94
2021/01/09 11:39:13;;;;;;;13.20;6.30;;;3.10;99.90;;;;;;12911073;22;20031;-93
2021/01/09 11:44:16;;;;;;;12.38;5.80;;;3.20;99.90;;;;;;12911969;22;20062;-94
2021/01/09 11:49:18;;;;;;;11.38;6.10;;;3.10;99.90;;;;;;12911382;22;20337;-95
2021/01/09 11:54:19;;;;;;;8.68;4.95;;;3.10;99.90;;;;;;12938500;22;20448;-94
2021/01/09 11:59:21;;;;;;;9.13;5.80;;;3.00;99.90;;;;;;12889471;22;20077;-94
2021/01/09 12:04:23;;;;;;;11.15;6.53;;;3.00;99.90;;;;;;12938967;22;20345;-94
2021/01/09 12:09:25;;;;;;;7.90;5.40;;;2.80;99.90;;;;;;12938309;22;20016;-94
2021/01/09 12:14:37;;;;;;;;;;;2.70;99.90;;;;;;12938902;22;20066;-94
2021/01/09 12:19:46;;;;;;;11.57;6.20;;;2.70;99.90;;;;;;12941432;22;19963;-95
2021/01/09 12:24:47;;;;;;;;;;;2.70;99.90;;;;;;12938487;22;20030;-94
2021/01/09 12:29:50;;;;;;;10.70;5.47;;;2.70;99.90;;;;;;12963626;22;20323;-94
2021/01/09 13:32:28;;;;;;;13.25;5.93;;;3.70;99.90;;;;;;12892874;22;20108;-90
2021/01/09 13:37:30;;;;;;;11.50;5.72;;;3.80;99.90;;;;;;12903632;23;20020;-92
2021/01/09 13:42:32;;;;;;;;;;;3.90;99.90;;;;;;12855587;23;20024;-91
2021/01/09 13:47:38;;;;;;;13.70;4.53;;;3.70;99.90;;;;;;12878166;23;19916;-92
2021/01/09 13:52:39;;;;;;;11.18;5.78;;;3.50;99.90;;;;;;12878023;23;20039;-92
2021/01/09 13:57:48;;;;;;;13.05;4.85;;;3.40;99.90;;;;;;12902546;23;20028;-91
2021/01/09 14:02:50;;;;;;;10.65;4.38;;;3.30;99.90;;;;;;12878529;23;20091;-92
2021/01/09 14:07:52;;;;;;;19.95;5.53;;;3.20;99.90;;;;;;12845433;23;20024;-92
2021/01/09 14:12:55;;;;;;;8.68;4.70;;;3.20;99.90;;;;;;12846085;23;20044;-92
2021/01/09 14:17:56;;;;;;;10.25;5.03;;;3.20;99.90;;;;;;12846268;23;20085;-91
2021/01/09 14:23:01;;;;;;;13.63;5.10;;;3.30;99.90;;;;;;12820484;23;20465;-92
2021/01/09 14:28:03;;;;;;;12.48;4.30;;;3.20;99.90;;;;;;12855094;23;20124;-93
2021/01/09 14:33:05;;;;;;;13.52;4.75;;;3.10;99.90;;;;;;12822871;23;20020;-91
2021/01/09 14:38:07;;;;;;;;;;;3.00;99.90;;;;;;12847753;23;20074;-92
2021/01/09 14:43:08;;;;;;;12.15;5.45;;;2.90;99.90;;;;;;12878217;23;19943;-91
2021/01/09 14:48:11;;;;;;;10.23;4.97;;;2.80;99.90;;;;;;12848047;23;20043;-92
2021/01/09 14:53:13;;;;;;;22.83;13.43;;;2.60;99.90;;;;;;12877383;23;20318;-92
2021/01/09 14:58:15;;;;;;;16.15;9.48;;;2.40;99.90;;;;;;12876068;23;20024;-92
2021/01/09 15:03:16;;;;;;;;;;;2.40;99.90;;;;;;12848572;23;20031;-92
2021/01/09 15:08:18;;;;;;;9.05;5.15;;;2.50;99.90;;;;;;12900700;23;19916;-92
2021/01/09 15:13:19;;;;;;;7.25;4.38;;;2.50;99.90;;;;;;12875741;23;20020;-92
2021/01/09 15:24:13;;;;;;;8.30;4.72;;;2.30;99.90;;;;;;12884938;23;20024;-92
2021/01/09 15:29:14;;;;;;;9.15;5.65;;;2.10;99.90;;;;;;12875846;23;20508;-91
2021/01/09 15:34:16;;;;;;;9.43;5.15;;;2.10;99.90;;;;;;12875639;23;20338;-91
2021/01/09 15:39:21;;;;;;;15.13;6.00;;;2.20;99.90;;;;;;12851321;23;20032;-91
2021/01/09 15:44:28;;;;;;;9.70;5.25;;;2.10;99.90;;;;;;12875858;23;20031;-91
2021/01/09 15:49:29;;;;;;;9.85;5.82;;;2.10;99.90;;;;;;12875956;23;20354;-91
2021/01/09 15:54:31;;;;;;;13.25;6.93;;;2.20;99.90;;;;;;12850657;23;20016;-91
2021/01/09 15:59:33;;;;;;;15.13;6.55;;;2.00;99.90;;;;;;12826199;23;20019;-91
2021/01/09 16:04:35;;;;;;;7.75;5.50;;;1.90;99.90;;;;;;12814303;23;20059;-92
2021/01/09 16:09:36;;;;;;;7.97;5.85;;;1.80;99.90;;;;;;12902116;23;20430;-91
2021/01/09 16:14:38;;;;;;;10.70;6.68;;;1.90;99.90;;;;;;12839613;23;20020;-91
2021/01/09 16:19:40;;;;;;;10.60;7.03;;;1.80;99.90;;;;;;12826904;23;20039;-91
2021/01/09 16:24:41;;;;;;;;;;;1.90;99.90;;;;;;12852580;23;20024;-91
2021/01/09 16:29:43;;;;;;;9.10;6.78;;;1.90;99.90;;;;;;12904486;23;19969;-91
2021/01/09 16:34:44;;;;;;;10.90;6.10;;;1.80;99.90;;;;;;12820585;23;20309;-92
2021/01/09 16:39:46;;;;;;;17.35;8.45;;;1.90;99.90;;;;;;12853933;23;20031;-91
2021/01/09 16:44:47;;;;;;;25.55;8.18;;;1.90;99.90;;;;;;12845616;23;20024;-92
2021/01/09 16:49:50;;;;;;;14.38;7.70;;;1.90;99.90;;;;;;12879560;23;20026;-91
2021/01/09 16:54:51;;;;;;;11.32;6.97;;;2.10;99.90;;;;;;12870622;23;20023;-91
2021/01/09 16:59:54;;;;;;;13.45;6.15;;;2.30;99.90;;;;;;12880862;23;20024;-91
2021/01/09 17:05:15;;;;;;;16.38;5.80;;;2.30;99.90;;;;;;12846558;23;20043;-92
2021/01/09 17:10:17;;;;;;;12.48;6.65;;;2.20;99.90;;;;;;12905355;23;20074;-91
2021/01/09 17:15:18;;;;;;;14.75;7.78;;;2.00;99.90;;;;;;12850869;23;20044;-92
2021/01/09 17:20:20;;;;;;;13.90;4.97;;;2.00;99.90;;;;;;12853033;23;20043;-91
2021/01/09 17:25:22;;;;;;;11.15;6.05;;;2.00;99.90;;;;;;12851495;23;20492;-92
2021/01/09 17:30:24;;;;;;;14.43;6.03;;;1.90;99.90;;;;;;12853879;23;20088;-92
2021/01/09 17:35:25;;;;;;;6.00;4.63;;;1.60;99.90;;;;;;12881327;23;20092;-91
2021/01/09 17:40:27;;;;;;;8.90;3.60;;;1.50;99.90;;;;;;12853806;23;20040;-92
2021/01/09 17:45:29;;;;;;;11.70;3.33;;;1.60;99.90;;;;;;12829584;23;20081;-92
2021/01/09 17:50:31;;;;;;;5.88;3.38;;;1.70;99.90;;;;;;12827772;23;20017;-92
2021/01/09 17:55:32;;;;;;;7.53;3.17;;;1.80;99.90;;;;;;12852695;23;20023;-91
2021/01/09 18:00:36;;;;;;;11.63;5.43;;;1.60;99.90;;;;;;12853958;23;20020;-91
2021/01/09 18:05:37;;;;;;;9.95;3.40;;;1.80;99.90;;;;;;12843457;23;20020;-92
2021/01/09 18:10:39;;;;;;;;;;;2.00;99.90;;;;;;12854581;23;20042;-91
2021/01/09 18:15:40;;;;;;;7.82;4.13;;;2.10;99.90;;;;;;12902739;23;19946;-91
2021/01/09 18:20:43;;;;;;;11.93;3.72;;;2.00;99.90;;;;;;12853763;23;20020;-91
2021/01/09 18:25:46;;;;;;;5.38;2.80;;;1.90;99.90;;;;;;12853514;23;20027;-91
2021/01/09 18:30:47;;;;;;;22.88;10.98;;;1.90;99.90;;;;;;12876488;23;20016;-92
2021/01/09 18:35:50;;;;;;;13.18;4.93;;;1.90;99.90;;;;;;12825465;22;20371;-91
2021/01/09 18:40:51;;;;;;;11.85;5.00;;;1.70;99.90;;;;;;12843331;23;20457;-92
